Map

Track Data

SID SEASON NUMBER BASIN SUBBASIN NAME ISO_TIME NATURE LAT LON WMO_WIND WMO_PRES WMO_AGENCY TRACK_TYPE DIST2LAND LANDFALL IFLAG USA_AGENCY USA_ATCF_ID USA_LAT USA_LON USA_RECORD USA_STATUS USA_WIND USA_PRES USA_SSHS USA_R34_NE USA_R34_SE USA_R34_SW USA_R34_NW USA_R50_NE USA_R50_SE USA_R50_SW USA_R50_NW USA_R64_NE USA_R64_SE USA_R64_SW USA_R64_NW USA_POCI USA_ROCI USA_RMW USA_EYE TOKYO_LAT TOKYO_LON TOKYO_GRADE TOKYO_WIND TOKYO_PRES TOKYO_R50_DIR TOKYO_R50_LONG TOKYO_R50_SHORT TOKYO_R30_DIR TOKYO_R30_LONG TOKYO_R30_SHORT TOKYO_LAND CMA_LAT CMA_LON CMA_CAT CMA_WIND CMA_PRES HKO_LAT HKO_LON HKO_CAT HKO_WIND HKO_PRES NEWDELHI_LAT NEWDELHI_LON NEWDELHI_GRADE NEWDELHI_WIND NEWDELHI_PRES NEWDELHI_CI NEWDELHI_DP NEWDELHI_POCI REUNION_LAT REUNION_LON REUNION_TYPE REUNION_WIND REUNION_PRES REUNION_TNUM REUNION_CI REUNION_RMW REUNION_R34_NE REUNION_R34_SE REUNION_R34_SW REUNION_R34_NW REUNION_R50_NE REUNION_R50_SE REUNION_R50_SW REUNION_R50_NW REUNION_R64_NE REUNION_R64_SE REUNION_R64_SW REUNION_R64_NW BOM_LAT BOM_LON BOM_TYPE BOM_WIND BOM_PRES BOM_TNUM BOM_CI BOM_RMW BOM_R34_NE BOM_R34_SE BOM_R34_SW BOM_R34_NW BOM_R50_NE BOM_R50_SE BOM_R50_SW BOM_R50_NW BOM_R64_NE BOM_R64_SE BOM_R64_SW BOM_R64_NW BOM_ROCI BOM_POCI BOM_EYE BOM_POS_METHOD BOM_PRES_METHOD NADI_LAT NADI_LON NADI_CAT NADI_WIND NADI_PRES WELLINGTON_LAT WELLINGTON_LON WELLINGTON_WIND WELLINGTON_PRES DS824_LAT DS824_LON DS824_STAGE DS824_WIND DS824_PRES TD9636_LAT TD9636_LON TD9636_STAGE TD9636_WIND TD9636_PRES TD9635_LAT TD9635_LON TD9635_WIND TD9635_PRES TD9635_ROCI NEUMANN_LAT NEUMANN_LON NEUMANN_CLASS NEUMANN_WIND NEUMANN_PRES MLC_LAT MLC_LON MLC_CLASS MLC_WIND MLC_PRES USA_GUST BOM_GUST BOM_GUST_PER REUNION_GUST REUNION_GUST_PER USA_SEAHGT USA_SEARAD_NE USA_SEARAD_SE USA_SEARAD_SW USA_SEARAD_NW STORM_SPEED STORM_DIR
1982300S09056 1983 96 SI MM ARILISY 1982-10-27 06:00:00 TS -9.00000 56.0000 24 1000 reunion main 802 802 _____O______O_ -1 -9.00000 56.0000 2 24 1000 2.00000 2.00000 -9.00000 56.0000 TC 30 1000 1 0
1982300S09056 1983 96 SI MM ARILISY 1982-10-27 09:00:00 TS -9.02749 55.9725 main 802 787 _____P______P_ -1 -9.02749 55.9725 2 -9.02749 55.9725 TC 30 1 223
1982300S09056 1983 96 SI MM ARILISY 1982-10-27 12:00:00 TS -9.10000 55.9000 reunion main 787 772 _____O______O_ -1 -9.10000 55.9000 99 9.90000 -9.10000 55.9000 TC 30 3 225
1982300S09056 1983 96 SI MM ARILISY 1982-10-27 15:00:00 TS -9.24252 55.7575 main 772 741 _____P______P_ -1 -9.24252 55.7575 99 -9.24252 55.7575 TC 30 4 224
1982300S09056 1983 96 SI MM ARILISY 1982-10-27 18:00:00 TS -9.40000 55.6000 reunion main 741 725 _____O______O_ -1 -9.40000 55.6000 99 9.90000 -9.40000 55.6000 TC 30 4 225
1982300S09056 1983 96 SI MM ARILISY 1982-10-27 21:00:00 TS -9.50749 55.4925 main 725 710 _____P______P_ -1 -9.50749 55.4925 99 -9.50749 55.4925 TC 32 3 225
1982300S09056 1983 96 SI MM ARILISY 1982-10-28 00:00:00 TS -9.60000 55.4000 reunion main 710 695 _____O______O_ -1 -9.60000 55.4000 99 9.90000 -9.60000 55.4000 TC 35 3 225
1982300S09056 1983 96 SI MM ARILISY 1982-10-28 03:00:00 TS -9.70000 55.3000 main 695 680 _____P______P_ -1 -9.70000 55.3000 99 -9.70000 55.3000 TC 35 3 225
1982300S09056 1983 96 SI MM ARILISY 1982-10-28 06:00:00 TS -9.80000 55.2000 28 997 reunion main 680 664 _____O______O_ -1 -9.80000 55.2000 2 28 997 2.50000 2.50000 -9.80000 55.2000 TC 35 997 3 225
1982300S09056 1983 96 SI MM ARILISY 1982-10-28 09:00:00 TS -9.89249 55.1075 main 664 649 _____P______P_ -1 -9.89249 55.1075 2 -9.89249 55.1075 TC 35 3 225
1982300S09056 1983 96 SI MM ARILISY 1982-10-28 12:00:00 TS -10.0000 55.0000 reunion main 649 634 _____O______O_ -1 -10.0000 55.0000 99 9.90000 -10.0000 55.0000 TC 35 3 224
1982300S09056 1983 96 SI MM ARILISY 1982-10-28 15:00:00 TS -10.1350 54.8725 main 634 604 _____P______P_ -1 -10.1350 54.8725 99 -10.1350 54.8725 TC 35 4 224
1982300S09056 1983 96 SI MM ARILISY 1982-10-28 18:00:00 TS -10.3000 54.7000 reunion main 604 573 _____O______O_ -1 -10.3000 54.7000 99 9.90000 -10.3000 54.7000 TC 35 6 228
1982300S09056 1983 96 SI MM ARILISY 1982-10-28 21:00:00 TS -10.5075 54.4501 main 573 534 _____P______P_ -1 -10.5075 54.4501 99 -10.5075 54.4501 TC 32 6 231
1982300S09056 1983 96 SI MM ARILISY 1982-10-29 00:00:00 TS -10.7000 54.2000 reunion main 534 509 _____O______O_ -1 -10.7000 54.2000 99 9.90000 -10.7000 54.2000 TC 30 5 233
1982300S09056 1983 96 SI MM ARILISY 1982-10-29 03:00:00 TS -10.8225 54.0200 main 509 494 _____P______P_ -1 -10.8225 54.0200 99 -10.8225 54.0200 TC 30 4 236
1982300S09056 1983 96 SI MM ARILISY 1982-10-29 06:00:00 TS -10.9000 53.9000 24 1000 reunion main 494 489 _____O______O_ -1 -10.9000 53.9000 2 24 1000 2.00000 2.00000 -10.9000 53.9000 TC 30 1000 2 228
1982300S09056 1983 96 SI MM ARILISY 1982-10-29 09:00:00 TS -10.9650 53.8575 main 489 479 _____P______P_ -1 -10.9650 53.8575 2 -10.9650 53.8575 TC 30 1 223
1982300S09056 1983 96 SI MM ARILISY 1982-10-29 12:00:00 TS -11.0000 53.8000 reunion main 479 460 _____O______O_ -1 -11.0000 53.8000 99 9.90000 -11.0000 53.8000 TC 30 2 260
1982300S09056 1983 96 SI MM ARILISY 1982-10-29 15:00:00 TS -11.0075 53.6075 main 460 441 _____P______P_ -1 -11.0075 53.6075 99 -11.0075 53.6075 TC 30 4 270
1982300S09056 1983 96 SI MM ARILISY 1982-10-29 18:00:00 TS -11.0000 53.4000 reunion main 441 432 _____O______O_ -1 -11.0000 53.4000 99 9.90000 -11.0000 53.4000 TC 30 3 271
1982300S09056 1983 96 SI MM ARILISY 1982-10-29 21:00:00 TS -11.0000 53.2850 main 432 423 _____P______P_ -1 -11.0000 53.2850 99 -11.0000 53.2850 TC 30 2 270
1982300S09056 1983 96 SI MM ARILISY 1982-10-30 00:00:00 TS -11.0000 53.2000 reunion main 423 414 _____O______O_ -1 -11.0000 53.2000 99 9.90000 -11.0000 53.2000 TC 30 2 270
1982300S09056 1983 96 SI MM ARILISY 1982-10-30 03:00:00 TS -11.0000 53.0925 main 414 404 _____P______P_ -1 -11.0000 53.0925 99 -11.0000 53.0925 TC 27 2 270
1982300S09056 1983 96 SI MM ARILISY 1982-10-30 06:00:00 TS -11.0000 53.0000 20 1003 reunion main 404 404 _____O______O_ -1 -11.0000 53.0000 2 20 1003 1.50000 1.50000 -11.0000 53.0000 TC 25 1003 1 270
1982300S09056 1983 96 SI MM ARILISY 1982-10-30 09:00:00 TS -11.0000 52.9500 main 404 395 _____P______P_ -1 -11.0000 52.9500 2 -11.0000 52.9500 TC 25 1 270
1982300S09056 1983 96 SI MM ARILISY 1982-10-30 12:00:00 TS -11.0000 52.9000 reunion main 395 387 _____O______O_ -1 -11.0000 52.9000 99 9.90000 -11.0000 52.9000 TC 25 1 270
1982300S09056 1983 96 SI MM ARILISY 1982-10-30 15:00:00 TS -11.0000 52.8150 main 387 378 _____P______P_ -1 -11.0000 52.8150 99 -11.0000 52.8150 TC 25 2 270
1982300S09056 1983 96 SI MM ARILISY 1982-10-30 18:00:00 TS -11.0000 52.7000 reunion main 378 369 _____O______O_ -1 -11.0000 52.7000 99 9.90000 -11.0000 52.7000 TC 25 3 270
1982300S09056 1983 96 SI MM ARILISY 1982-10-30 21:00:00 TS -11.0000 52.5500 main 369 352 _____P______P_ -1 -11.0000 52.5500 99 -11.0000 52.5500 TC 22 3 270
1982300S09056 1983 96 SI MM ARILISY 1982-10-31 00:00:00 TS -11.0000 52.4000 reunion main 352 343 _____O______O_ -1 -11.0000 52.4000 99 9.90000 -11.0000 52.4000 TC 20 3 270
1982300S09056 1983 96 SI MM ARILISY 1982-10-31 03:00:00 TS -11.0000 52.2875 main 343 333 _____P______P_ -1 -11.0000 52.2875 99 -11.0000 52.2875 TC 20 2 270
1982300S09056 1983 96 SI MM ARILISY 1982-10-31 06:00:00 TS -11.0000 52.2000 reunion main 333 _____O______O_ -1 -11.0000 52.2000 99 9.90000 -11.0000 52.2000 TC 20 2 270

About IBTrACS Database

This database is a web-friendly format of International Best Track Archive for Climate Stewardship (IBTrACS), a global best track data archive curated by NOAA dating back to 1842.

Updated: 2021-11-26